Komo-Manda Airport


Codes: KOM/KOM
Name: Komo-Manda Airport
City: Komo
Country: Papua New Guinea
Elevation: 5057 ft.

Photos at Komo-Manda Airport


   Photos courtesy of SpottingLog. You can add your own sightings and photos by signing up for a free trial today.



No photos found.

Weather at Komo-Manda Airport


Time (UTC)DescriptionTempratureWindCloud coverageVisibilityPressureHumidity
16-Jun-2024 03:00Light Rain20°C4 mph, SW78%10000m1014hPa78%
16-Jun-2024 06:00Light Rain19°C2 mph, SW84%9400m1014hPa87%
16-Jun-2024 09:00Light Rain17°C0 mph, SW98%125m1016hPa99%
16-Jun-2024 12:00Light Rain16°C2 mph, SE97%4566m1016hPa100%
16-Jun-2024 15:00Light Rain16°C2 mph, N100%0m1016hPa100%
16-Jun-2024 18:00Light Rain16°C2 mph, N100%0m1015hPa99%
16-Jun-2024 21:00Light Rain16°C2 mph, SE100%2687m1016hPa99%
17-Jun-2024 00:00Light Rain18°C2 mph, S100%6242m1016hPa93%
17-Jun-2024 03:00Light Rain21°C4 mph, SW74%10000m1013hPa74%
17-Jun-2024 06:00Light Rain19°C4 mph, S81%10000m1013hPa89%
17-Jun-2024 09:00Light Rain17°C2 mph, N99%0m1015hPa99%
17-Jun-2024 12:00Light Rain16°C2 mph, N98%0m1016hPa99%
17-Jun-2024 15:00Light Rain16°C2 mph, N100%0m1015hPa100%
17-Jun-2024 18:00Light Rain16°C2 mph, N100%0m1015hPa100%
17-Jun-2024 21:00Light Rain16°C2 mph, N100%0m1015hPa99%
18-Jun-2024 00:00Light Rain18°C2 mph, S100%10000m1015hPa91%
18-Jun-2024 03:00Light Rain17°C4 mph, S100%577m1013hPa93%
18-Jun-2024 06:00Overcast Clouds18°C2 mph, S98%10000m1012hPa91%
18-Jun-2024 09:00Light Rain16°C2 mph, N97%0m1013hPa99%
18-Jun-2024 12:00Light Rain16°C2 mph, N99%0m1015hPa99%
18-Jun-2024 15:00Light Rain16°C2 mph, SE100%303m1014hPa99%
18-Jun-2024 18:00Overcast Clouds15°C2 mph, SE100%722m1013hPa99%
18-Jun-2024 21:00Overcast Clouds15°C2 mph, N100%0m1015hPa100%
19-Jun-2024 00:00Light Rain16°C2 mph, N100%0m1016hPa98%
19-Jun-2024 03:00Light Rain18°C4 mph, N100%0m1013hPa90%
19-Jun-2024 06:00Light Rain16°C2 mph, N100%0m1012hPa95%
19-Jun-2024 09:00Overcast Clouds16°C2 mph, N100%0m1013hPa97%
19-Jun-2024 12:00Overcast Clouds16°C2 mph, N100%0m1015hPa99%
19-Jun-2024 15:00Overcast Clouds15°C0 mph, E100%1964m1014hPa99%
19-Jun-2024 18:00Overcast Clouds15°C2 mph, E100%773m1013hPa98%
19-Jun-2024 21:00Light Rain15°C0 mph, N99%0m1014hPa99%
20-Jun-2024 00:00Light Rain17°C2 mph, S99%1470m1015hPa92%
20-Jun-2024 03:00Light Rain19°C4 mph, SW100%10000m1013hPa81%
20-Jun-2024 06:00Light Rain18°C2 mph, SW99%10000m1012hPa92%
20-Jun-2024 09:00Light Rain16°C2 mph, N98%0m1014hPa100%
20-Jun-2024 12:00Light Rain16°C2 mph, N99%0m1016hPa100%
20-Jun-2024 15:00Light Rain16°C2 mph, N100%0m1015hPa100%
20-Jun-2024 18:00Light Rain16°C2 mph, N100%0m1014hPa100%
20-Jun-2024 21:00Light Rain16°C2 mph, N100%0m1015hPa100%
21-Jun-2024 00:00Light Rain17°C0 mph, N100%0m1015hPa98%